Time;durP1;ratioP1;P1;durP2;ratioP2;P2;SDS_P1;SDS_P2;PMS_P1;PMS_P2;Temp;Humidity;BMP_temperature;BMP_pressure;BME280_temperature;BME280_humidity;BME280_pressure;Samples;Min_cycle;Max_cycle;Signal;HPM_P1;HPM_P2
2021/07/21 00:01:24;;;;;;;13.70;7.60;;;;;;;;;;4976259;28;20586;-85
2021/07/21 00:03:50;;;;;;;10.43;7.60;;;;;;;;;;4958633;28;20226;-85
2021/07/21 00:06:17;;;;;;;8.75;7.28;;;;;;;;;;4976569;28;20206;-85
2021/07/21 00:08:44;;;;;;;11.47;7.30;;;;;;;;;;4976275;28;20218;-85
2021/07/21 00:13:57;;;;;;;8.03;7.23;;;;;;;;;;4975034;28;21038;-86
2021/07/21 00:16:30;;;;;;;9.87;7.03;;;;;;;;;;4976017;28;20213;-85
2021/07/21 00:19:02;;;;;;;9.30;6.80;;;;;;;;;;4976184;28;20634;-85
2021/07/21 00:21:28;;;;;;;11.33;7.53;;;;;;;;;;4958674;28;20198;-85
2021/07/21 00:23:55;;;;;;;9.87;7.27;;;;;;;;;;4958244;28;20238;-85
2021/07/21 00:26:22;;;;;;;9.00;6.60;;;;;;;;;;4958075;28;20263;-85
2021/07/21 00:28:48;;;;;;;8.27;6.93;;;;;;;;;;4957924;28;20238;-85
2021/07/21 00:31:16;;;;;;;10.13;6.43;;;;;;;;;;4975763;28;20210;-85
2021/07/21 00:33:43;;;;;;;10.33;6.40;;;;;;;;;;4975302;28;20642;-85
2021/07/21 00:36:10;;;;;;;9.47;6.67;;;;;;;;;;4957902;28;20199;-85
2021/07/21 00:38:36;;;;;;;12.37;6.90;;;;;;;;;;4958139;28;20226;-85
2021/07/21 00:41:03;;;;;;;8.90;6.87;;;;;;;;;;4958076;28;20229;-86
2021/07/21 00:43:30;;;;;;;10.00;7.33;;;;;;;;;;4957828;28;20195;-86
2021/07/21 00:45:56;;;;;;;8.60;7.17;;;;;;;;;;4957237;28;20295;-85
2021/07/21 00:48:24;;;;;;;9.90;7.10;;;;;;;;;;4975313;28;20214;-86
2021/07/21 00:50:53;;;;;;;9.00;7.17;;;;;;;;;;4957427;28;20254;-85
2021/07/21 00:53:20;;;;;;;13.47;7.00;;;;;;;;;;4975076;28;20226;-85
2021/07/21 00:55:47;;;;;;;9.27;7.10;;;;;;;;;;4957751;28;20214;-85
2021/07/21 00:58:14;;;;;;;9.10;7.13;;;;;;;;;;4975138;28;20187;-86
2021/07/21 01:00:41;;;;;;;12.40;7.37;;;;;;;;;;4974709;28;20242;-86
2021/07/21 01:03:07;;;;;;;9.27;6.90;;;;;;;;;;4956738;28;20555;-85
2021/07/21 01:05:41;;;;;;;12.33;7.37;;;;;;;;;;4974731;28;20260;-85
2021/07/21 01:08:08;;;;;;;7.77;7.00;;;;;;;;;;4957815;28;20253;-85
2021/07/21 01:10:35;;;;;;;8.70;7.17;;;;;;;;;;4957384;28;20725;-85
2021/07/21 01:13:06;;;;;;;8.37;6.90;;;;;;;;;;4957488;28;20289;-85
2021/07/21 01:15:36;;;;;;;9.23;6.77;;;;;;;;;;4957592;28;20678;-85
2021/07/21 01:18:07;;;;;;;9.30;6.90;;;;;;;;;;4957689;28;20203;-85
2021/07/21 01:20:50;;;;;;;10.70;7.27;;;;;;;;;;4957277;28;20225;-85
2021/07/21 01:23:29;;;;;;;7.40;6.43;;;;;;;;;;4957363;28;20194;-85
2021/07/21 01:25:57;;;;;;;7.27;6.40;;;;;;;;;;4957135;28;20257;-85
2021/07/21 01:28:27;;;;;;;7.63;6.37;;;;;;;;;;4974237;28;20753;-85
2021/07/21 01:30:55;;;;;;;8.00;7.20;;;;;;;;;;4974739;28;20183;-86
2021/07/21 01:33:22;;;;;;;10.27;6.97;;;;;;;;;;4957617;28;20249;-85
2021/07/21 01:35:54;;;;;;;8.97;6.47;;;;;;;;;;4957294;28;20210;-85
2021/07/21 01:38:24;;;;;;;7.77;6.97;;;;;;;;;;4957520;28;20588;-85
2021/07/21 01:40:52;;;;;;;8.90;6.60;;;;;;;;;;4957136;28;20225;-84
2021/07/21 01:43:20;;;;;;;8.70;6.80;;;;;;;;;;4974698;28;20206;-85
2021/07/21 01:45:48;;;;;;;9.47;6.60;;;;;;;;;;4974282;28;20183;-84
2021/07/21 01:48:15;;;;;;;8.23;6.73;;;;;;;;;;4957174;28;20261;-85
2021/07/21 01:50:42;;;;;;;6.33;5.73;;;;;;;;;;4956918;28;20289;-85
2021/07/21 01:53:09;;;;;;;9.20;6.90;;;;;;;;;;4974062;28;20253;-85
2021/07/21 01:55:36;;;;;;;8.07;6.50;;;;;;;;;;4956913;28;20202;-85
2021/07/21 01:58:04;;;;;;;9.27;6.80;;;;;;;;;;4957171;28;20241;-85
2021/07/21 02:00:30;;;;;;;7.67;6.90;;;;;;;;;;4956974;28;20198;-85
2021/07/21 02:03:00;;;;;;;9.00;6.60;;;;;;;;;;4974609;28;20206;-85
2021/07/21 02:05:27;;;;;;;7.50;6.70;;;;;;;;;;4956468;28;20241;-85
2021/07/21 02:07:55;;;;;;;7.10;6.40;;;;;;;;;;4956973;28;20269;-85
2021/07/21 02:10:24;;;;;;;7.57;6.37;;;;;;;;;;4956870;28;20206;-84
2021/07/21 02:12:53;;;;;;;8.93;7.03;;;;;;;;;;4973964;28;20245;-85
2021/07/21 02:15:20;;;;;;;7.50;5.93;;;;;;;;;;4960147;28;20199;-85
2021/07/21 02:17:47;;;;;;;9.10;6.57;;;;;;;;;;4960502;28;20603;-85
2021/07/21 02:20:15;;;;;;;9.23;6.40;;;;;;;;;;4960700;28;20249;-85
2021/07/21 02:22:43;;;;;;;12.00;6.47;;;;;;;;;;4977932;28;20213;-85
2021/07/21 02:25:10;;;;;;;6.33;5.73;;;;;;;;;;4960421;28;20226;-85
2021/07/21 02:27:37;;;;;;;7.10;6.23;;;;;;;;;;4960404;28;20210;-85
2021/07/21 02:30:07;;;;;;;6.53;5.93;;;;;;;;;;4977861;28;20175;-84
2021/07/21 02:32:37;;;;;;;7.20;6.17;;;;;;;;;;4960451;28;20191;-85
2021/07/21 02:35:04;;;;;;;8.40;7.23;;;;;;;;;;4960520;28;20300;-85
2021/07/21 02:37:33;;;;;;;8.03;6.50;;;;;;;;;;4960392;28;20226;-85
2021/07/21 02:39:59;;;;;;;7.97;6.30;;;;;;;;;;4960338;28;20207;-85
2021/07/21 02:42:26;;;;;;;11.03;6.40;;;;;;;;;;4977538;28;20249;-85
2021/07/21 02:44:53;;;;;;;11.63;6.60;;;;;;;;;;4960483;28;20207;-85
2021/07/21 02:47:21;;;;;;;9.67;6.63;;;;;;;;;;4948016;28;20266;-85
2021/07/21 02:49:49;;;;;;;8.63;6.00;;;;;;;;;;4941058;29;20199;-86
2021/07/21 02:52:19;;;;;;;9.57;6.70;;;;;;;;;;4941202;29;20192;-86
2021/07/21 02:54:53;;;;;;;8.73;6.53;;;;;;;;;;4958034;29;20235;-85
2021/07/21 02:57:21;;;;;;;9.67;6.53;;;;;;;;;;4941284;29;20730;-85
2021/07/21 02:59:51;;;;;;;6.80;6.03;;;;;;;;;;4958271;29;20589;-85
2021/07/21 03:02:19;;;;;;;10.70;6.30;;;;;;;;;;4940681;29;20258;-85
2021/07/21 03:04:46;;;;;;;6.67;5.97;;;;;;;;;;4940772;29;20262;-85
2021/07/21 03:07:13;;;;;;;9.07;6.33;;;;;;;;;;4958065;29;20215;-84
2021/07/21 03:09:41;;;;;;;7.87;6.47;;;;;;;;;;4958186;29;20184;-85
2021/07/21 03:12:10;;;;;;;8.67;6.50;;;;;;;;;;4940759;29;20558;-85
2021/07/21 03:14:38;;;;;;;6.67;6.00;;;;;;;;;;4940396;29;20294;-85
2021/07/21 03:17:05;;;;;;;9.40;5.93;;;;;;;;;;4940432;29;20215;-85
2021/07/21 03:19:32;;;;;;;8.20;6.00;;;;;;;;;;4940131;29;20718;-85
2021/07/21 03:22:00;;;;;;;6.90;6.00;;;;;;;;;;4957899;29;20221;-85
2021/07/21 03:24:27;;;;;;;7.00;5.70;;;;;;;;;;4940676;29;20199;-85
2021/07/21 03:26:55;;;;;;;9.53;6.37;;;;;;;;;;4939819;29;20199;-85
2021/07/21 03:29:23;;;;;;;10.60;6.60;;;;;;;;;;4957739;29;20618;-85
2021/07/21 03:31:50;;;;;;;6.40;5.60;;;;;;;;;;4957409;29;20230;-85
2021/07/21 03:34:18;;;;;;;7.47;6.10;;;;;;;;;;4940223;29;20247;-84
2021/07/21 03:36:47;;;;;;;7.30;5.53;;;;;;;;;;4939037;29;20211;-85
2021/07/21 03:39:14;;;;;;;7.10;5.60;;;;;;;;;;4940237;29;20228;-84
2021/07/21 03:41:41;;;;;;;7.73;6.07;;;;;;;;;;4940065;29;20192;-85
2021/07/21 03:44:09;;;;;;;7.27;6.07;;;;;;;;;;4940049;29;20667;-84
2021/07/21 03:46:38;;;;;;;6.03;5.47;;;;;;;;;;4939848;28;20247;-85
2021/07/21 03:49:05;;;;;;;8.53;5.50;;;;;;;;;;4940097;29;20258;-84
2021/07/21 03:51:31;;;;;;;7.97;6.13;;;;;;;;;;4957431;29;20564;-84
2021/07/21 03:53:58;;;;;;;9.93;5.50;;;;;;;;;;4957066;29;20259;-84
2021/07/21 03:56:25;;;;;;;7.17;5.67;;;;;;;;;;4939942;29;20583;-85
2021/07/21 03:58:52;;;;;;;14.83;6.20;;;;;;;;;;4955794;29;20238;-86
2021/07/21 04:01:20;;;;;;;9.13;5.77;;;;;;;;;;4939188;29;20659;-84
2021/07/21 04:03:48;;;;;;;13.97;6.40;;;;;;;;;;4939402;29;20642;-85
2021/07/21 04:06:15;;;;;;;8.33;5.27;;;;;;;;;;4955661;29;20250;-85
2021/07/21 04:08:43;;;;;;;7.80;5.73;;;;;;;;;;4939143;29;20207;-85
2021/07/21 04:11:12;;;;;;;11.20;5.50;;;;;;;;;;4956320;29;20234;-86
2021/07/21 04:13:39;;;;;;;8.90;5.40;;;;;;;;;;4956548;29;20223;-87
2021/07/21 04:16:07;;;;;;;8.30;5.80;;;;;;;;;;4956719;29;20678;-87
2021/07/21 04:18:33;;;;;;;9.13;6.13;;;;;;;;;;4939472;29;20200;-83
2021/07/21 04:21:02;;;;;;;6.73;5.63;;;;;;;;;;4939098;29;20642;-87
2021/07/21 04:23:29;;;;;;;7.80;6.20;;;;;;;;;;4938778;29;20303;-83
2021/07/21 04:25:55;;;;;;;7.37;5.73;;;;;;;;;;4939526;29;20191;-85
2021/07/21 04:28:22;;;;;;;9.13;5.70;;;;;;;;;;4938309;29;20207;-84
2021/07/21 04:30:49;;;;;;;7.50;5.70;;;;;;;;;;4939049;29;20207;-83
2021/07/21 04:33:16;;;;;;;7.57;6.17;;;;;;;;;;4938627;29;20660;-84
2021/07/21 04:35:43;;;;;;;10.80;6.60;;;;;;;;;;4955824;29;20219;-84
2021/07/21 04:38:11;;;;;;;9.00;6.20;;;;;;;;;;4937813;29;20203;-84
2021/07/21 04:40:43;;;;;;;13.70;6.10;;;;;;;;;;4939146;29;20203;-84
2021/07/21 04:43:10;;;;;;;13.93;6.23;;;;;;;;;;4956090;29;20180;-84
2021/07/21 04:45:39;;;;;;;8.90;5.53;;;;;;;;;;4938828;29;20259;-84
2021/07/21 04:48:06;;;;;;;11.53;5.53;;;;;;;;;;4973965;28;20253;-84
2021/07/21 04:50:32;;;;;;;9.57;5.83;;;;;;;;;;4958284;28;20772;-84
2021/07/21 04:52:59;;;;;;;11.33;6.07;;;;;;;;;;4975580;28;20187;-84
2021/07/21 04:55:27;;;;;;;12.47;5.60;;;;;;;;;;4974716;28;20258;-84
2021/07/21 04:57:54;;;;;;;11.53;5.97;;;;;;;;;;4958082;28;20262;-84
2021/07/21 05:00:21;;;;;;;10.40;6.20;;;;;;;;;;4958134;28;20194;-84
2021/07/21 05:02:47;;;;;;;13.13;6.10;;;;;;;;;;4974751;28;20250;-83
2021/07/21 05:05:14;;;;;;;9.30;6.20;;;;;;;;;;4975018;28;20233;-83
2021/07/21 05:07:41;;;;;;;11.17;5.80;;;;;;;;;;4974506;28;20253;-84
2021/07/21 05:10:08;;;;;;;8.10;5.77;;;;;;;;;;4975122;28;20207;-84
2021/07/21 05:12:37;;;;;;;9.50;5.90;;;;;;;;;;4957127;28;20238;-85
2021/07/21 05:15:05;;;;;;;7.17;5.60;;;;;;;;;;4957361;28;20312;-84
2021/07/21 05:17:31;;;;;;;10.97;6.07;;;;;;;;;;4974955;28;20349;-84
2021/07/21 05:19:58;;;;;;;8.57;6.00;;;;;;;;;;4956925;28;20233;-83
2021/07/21 05:22:24;;;;;;;8.20;5.83;;;;;;;;;;4974878;28;20210;-85
2021/07/21 05:24:51;;;;;;;6.50;5.57;;;;;;;;;;4957381;28;20242;-83
2021/07/21 05:27:18;;;;;;;11.90;5.83;;;;;;;;;;4957262;28;20229;-82
2021/07/21 05:29:46;;;;;;;7.80;5.87;;;;;;;;;;4957208;28;20202;-83
2021/07/21 05:32:12;;;;;;;10.10;5.63;;;;;;;;;;4974753;28;20622;-84
2021/07/21 05:34:39;;;;;;;7.87;5.90;;;;;;;;;;4974165;28;20297;-84
2021/07/21 05:37:06;;;;;;;11.03;5.97;;;;;;;;;;4957702;28;20218;-84
2021/07/21 05:39:32;;;;;;;6.37;5.67;;;;;;;;;;4974904;28;20242;-86
2021/07/21 05:41:59;;;;;;;9.50;6.00;;;;;;;;;;4974588;28;20209;-83
2021/07/21 05:44:26;;;;;;;7.53;6.10;;;;;;;;;;4956871;28;20210;-83
2021/07/21 05:46:54;;;;;;;6.57;5.70;;;;;;;;;;4957026;28;20262;-83
2021/07/21 05:49:21;;;;;;;7.47;6.10;;;;;;;;;;4974094;28;20241;-83
2021/07/21 05:51:48;;;;;;;10.10;6.63;;;;;;;;;;4956453;28;20253;-83
2021/07/21 05:54:15;;;;;;;6.87;5.87;;;;;;;;;;4974727;28;20194;-86
2021/07/21 05:56:42;;;;;;;7.93;6.13;;;;;;;;;;4974716;28;20563;-85
2021/07/21 05:59:09;;;;;;;9.50;5.90;;;;;;;;;;4973635;28;20242;-84
2021/07/21 06:01:35;;;;;;;6.60;5.80;;;;;;;;;;4974062;28;20211;-84
2021/07/21 06:04:04;;;;;;;6.77;5.70;;;;;;;;;;4956918;28;20198;-84
2021/07/21 06:06:30;;;;;;;6.90;6.03;;;;;;;;;;4974309;28;20571;-84
2021/07/21 06:08:57;;;;;;;8.03;6.30;;;;;;;;;;4956390;28;20206;-84
2021/07/21 06:11:24;;;;;;;8.20;5.40;;;;;;;;;;4957127;28;20234;-85
2021/07/21 06:13:51;;;;;;;14.97;6.00;;;;;;;;;;4973907;28;20258;-83
2021/07/21 06:16:19;;;;;;;7.63;6.17;;;;;;;;;;4973901;28;20301;-83
2021/07/21 06:18:45;;;;;;;9.80;5.93;;;;;;;;;;4974203;28;20207;-84
2021/07/21 06:21:14;;;;;;;6.40;5.57;;;;;;;;;;4974236;28;20203;-85
2021/07/21 06:23:40;;;;;;;8.03;5.53;;;;;;;;;;4974130;28;20207;-83
2021/07/21 06:26:07;;;;;;;11.77;5.93;;;;;;;;;;4956358;28;20203;-84
2021/07/21 06:28:34;;;;;;;8.33;5.70;;;;;;;;;;4956880;28;20587;-85
2021/07/21 06:31:01;;;;;;;8.83;6.33;;;;;;;;;;4974248;28;20179;-84
2021/07/21 06:33:27;;;;;;;9.63;6.50;;;;;;;;;;4957103;28;20206;-85
2021/07/21 06:35:54;;;;;;;8.47;6.20;;;;;;;;;;4956713;28;20682;-84
2021/07/21 06:38:22;;;;;;;7.50;6.07;;;;;;;;;;4956950;28;20508;-84
2021/07/21 06:40:49;;;;;;;10.30;5.70;;;;;;;;;;4974289;28;20203;-84
2021/07/21 06:43:16;;;;;;;11.10;6.50;;;;;;;;;;4956995;28;20199;-86
2021/07/21 06:45:42;;;;;;;13.40;6.50;;;;;;;;;;4956979;28;20187;-84
2021/07/21 06:48:09;;;;;;;7.33;5.93;;;;;;;;;;4956330;28;20265;-85
2021/07/21 06:50:36;;;;;;;10.87;6.30;;;;;;;;;;4956379;28;20226;-85
2021/07/21 06:53:03;;;;;;;6.77;5.83;;;;;;;;;;4973751;28;20211;-84
2021/07/21 06:55:31;;;;;;;6.93;6.23;;;;;;;;;;4956164;28;20273;-85
2021/07/21 06:57:59;;;;;;;6.60;6.00;;;;;;;;;;4973535;28;20221;-85
2021/07/21 07:00:26;;;;;;;7.20;6.07;;;;;;;;;;4973956;28;20238;-85
2021/07/21 07:02:52;;;;;;;7.33;6.40;;;;;;;;;;4977029;28;20244;-84
2021/07/21 07:05:19;;;;;;;7.73;6.17;;;;;;;;;;4960142;28;20206;-83
2021/07/21 07:07:46;;;;;;;12.40;6.70;;;;;;;;;;4977095;28;20721;-84
2021/07/21 07:10:12;;;;;;;9.93;7.13;;;;;;;;;;4977484;28;20214;-84
2021/07/21 07:12:41;;;;;;;7.80;6.50;;;;;;;;;;4959679;28;20202;-84
2021/07/21 07:15:08;;;;;;;11.07;7.47;;;;;;;;;;4959180;28;20249;-84
2021/07/21 07:17:35;;;;;;;14.30;6.83;;;;;;;;;;4959658;28;20211;-85
2021/07/21 07:20:02;;;;;;;10.60;6.77;;;;;;;;;;4977434;28;20210;-84
2021/07/21 07:22:28;;;;;;;8.37;6.30;;;;;;;;;;4959730;28;20264;-85
2021/07/21 07:24:55;;;;;;;8.00;6.70;;;;;;;;;;4959286;28;20550;-84
2021/07/21 07:27:22;;;;;;;10.63;6.93;;;;;;;;;;4976679;28;20249;-83
2021/07/21 07:29:50;;;;;;;11.57;6.43;;;;;;;;;;4959200;28;20226;-83
2021/07/21 07:32:16;;;;;;;12.90;6.90;;;;;;;;;;4959098;28;20229;-82
2021/07/21 07:34:43;;;;;;;8.53;6.47;;;;;;;;;;4959065;28;20299;-81
2021/07/21 07:37:11;;;;;;;12.85;6.50;;;;;;;;;;4976673;28;20234;-83
2021/07/21 07:39:37;;;;;;;10.67;6.60;;;;;;;;;;4976098;28;20242;-83
2021/07/21 07:42:04;;;;;;;8.27;6.10;;;;;;;;;;4959344;28;20466;-82
2021/07/21 07:44:31;;;;;;;13.98;6.07;;;;;;;;;;4958522;28;20211;-82
2021/07/21 07:46:59;;;;;;;10.65;5.97;;;;;;;;;;4949456;29;20703;-82
2021/07/21 07:49:26;;;;;;;8.23;5.97;;;;;;;;;;4939517;29;20211;-81
2021/07/21 07:51:52;;;;;;;11.80;5.47;;;;;;;;;;4939655;29;20259;-82
2021/07/21 07:54:20;;;;;;;8.10;5.85;;;;;;;;;;4956718;29;20876;-81
2021/07/21 07:56:50;;;;;;;6.90;6.10;;;;;;;;;;4938012;29;20295;-82
2021/07/21 07:59:17;;;;;;;7.40;5.70;;;;;;;;;;4956153;29;20211;-82
2021/07/21 08:01:44;;;;;;;9.80;5.80;;;;;;;;;;4956120;29;20236;-81
2021/07/21 08:04:12;;;;;;;7.40;6.00;;;;;;;;;;4938588;29;20235;-82
2021/07/21 08:06:38;;;;;;;9.55;6.10;;;;;;;;;;4953929;29;20223;-82
2021/07/21 08:09:12;;;;;;;6.18;5.55;;;;;;;;;;4938711;29;20251;-81
2021/07/21 08:11:39;;;;;;;8.65;6.70;;;;;;;;;;4955406;28;20247;-83
2021/07/21 08:14:06;;;;;;;12.85;6.10;;;;;;;;;;4955868;29;20963;-82
2021/07/21 08:16:33;;;;;;;8.40;5.75;;;;;;;;;;4939251;29;20226;-84
2021/07/21 08:18:59;;;;;;;8.20;5.80;;;;;;;;;;4956704;29;20228;-82
2021/07/21 08:21:27;;;;;;;7.78;5.53;;;;;;;;;;4956822;29;20180;-85
2021/07/21 08:23:54;;;;;;;10.13;6.15;;;;;;;;;;4939825;29;20211;-86
2021/07/21 08:26:21;;;;;;;8.70;6.18;;;;;;;;;;4939210;29;20203;-84
2021/07/21 08:28:47;;;;;;;6.93;6.00;;;;;;;;;;4938835;29;20587;-84
2021/07/21 08:31:14;;;;;;;11.15;5.70;;;;;;;;;;4952756;28;20251;-84
2021/07/21 08:33:43;;;;;;;8.77;5.90;;;;;;;;;;4975263;28;20241;-83
2021/07/21 08:36:10;;;;;;;11.68;6.00;;;;;;;;;;4958253;28;20308;-86
2021/07/21 08:38:38;;;;;;;7.85;5.57;;;;;;;;;;4975813;28;20210;-86
2021/07/21 08:41:04;;;;;;;7.20;5.80;;;;;;;;;;4958047;28;20191;-85
2021/07/21 08:43:31;;;;;;;6.70;5.47;;;;;;;;;;4975684;28;20179;-84
2021/07/21 08:45:59;;;;;;;6.15;5.18;;;;;;;;;;4977164;28;20640;-84
2021/07/21 08:48:25;;;;;;;7.85;5.45;;;;;;;;;;4977282;28;20260;-87
2021/07/21 08:50:52;;;;;;;10.95;5.93;;;;;;;;;;4977316;28;20546;-84
2021/07/21 08:53:19;;;;;;;5.80;5.20;;;;;;;;;;4977252;28;20201;-84
2021/07/21 08:55:48;;;;;;;7.88;5.22;;;;;;;;;;4976982;28;21039;-82
2021/07/21 08:58:14;;;;;;;14.43;5.68;;;;;;;;;;4994722;28;20650;-82
2021/07/21 09:00:41;;;;;;;8.38;5.82;;;;;;;;;;4976692;28;20212;-83
2021/07/21 09:03:08;;;;;;;7.43;5.05;;;;;;;;;;4977316;28;20205;-84
2021/07/21 09:05:35;;;;;;;5.85;5.32;;;;;;;;;;4976876;28;20260;-84
2021/07/21 09:08:01;;;;;;;7.63;5.00;;;;;;;;;;4994175;28;20210;-84
2021/07/21 09:10:28;;;;;;;10.55;5.65;;;;;;;;;;4976396;28;20754;-84
2021/07/21 09:12:56;;;;;;;6.47;4.97;;;;;;;;;;4994875;28;20577;-84
2021/07/21 09:15:24;;;;;;;6.40;5.28;;;;;;;;;;4976980;28;20193;-83
2021/07/21 09:18:00;;;;;;;6.10;4.90;;;;;;;;;;4976414;28;20245;-83
2021/07/21 09:20:27;;;;;;;7.82;5.03;;;;;;;;;;4993648;28;20251;-83
2021/07/21 09:22:55;;;;;;;5.97;5.00;;;;;;;;;;4994224;28;20245;-83
2021/07/21 09:25:23;;;;;;;6.43;4.85;;;;;;;;;;4993528;28;20229;-82
2021/07/21 09:27:51;;;;;;;6.75;4.70;;;;;;;;;;4994057;28;20245;-86
2021/07/21 09:30:20;;;;;;;8.73;5.18;;;;;;;;;;4994384;28;20233;-83
2021/07/21 09:32:53;;;;;;;4.70;4.30;;;;;;;;;;4993725;28;20268;-87
2021/07/21 09:35:20;;;;;;;6.20;4.82;;;;;;;;;;4994125;28;20213;-80
2021/07/21 09:37:47;;;;;;;7.72;4.97;;;;;;;;;;4976462;28;20253;-81
2021/07/21 09:40:15;;;;;;;7.65;5.03;;;;;;;;;;4976540;28;20189;-81
2021/07/21 09:42:41;;;;;;;6.95;4.82;;;;;;;;;;4993378;28;20241;-82
2021/07/21 09:45:09;;;;;;;7.13;4.97;;;;;;;;;;4993636;28;20205;-82
2021/07/21 09:47:41;;;;;;;5.90;4.85;;;;;;;;;;4993230;28;20256;-80
2021/07/21 09:50:12;;;;;;;5.95;4.93;;;;;;;;;;4993519;28;20249;-78
2021/07/21 09:52:45;;;;;;;6.55;4.80;;;;;;;;;;4975858;28;20233;-80
2021/07/21 09:55:13;;;;;;;5.85;5.00;;;;;;;;;;4976089;28;20209;-80
2021/07/21 09:57:40;;;;;;;8.00;4.55;;;;;;;;;;4993153;28;20268;-81
2021/07/21 10:00:16;;;;;;;6.40;4.97;;;;;;;;;;4976006;28;20229;-80
2021/07/21 10:02:44;;;;;;;6.13;5.55;;;;;;;;;;4993277;28;20257;-80
2021/07/21 10:05:11;;;;;;;5.78;5.07;;;;;;;;;;4992884;28;20229;-80
2021/07/21 10:07:50;;;;;;;6.93;4.63;;;;;;;;;;4975515;28;20206;-81
2021/07/21 10:10:17;;;;;;;5.30;4.80;;;;;;;;;;4974994;28;20573;-81
2021/07/21 10:12:44;;;;;;;6.05;5.10;;;;;;;;;;4975726;28;20206;-79
2021/07/21 10:15:11;;;;;;;8.38;5.45;;;;;;;;;;4993090;28;20228;-79
2021/07/21 10:17:38;;;;;;;6.68;5.00;;;;;;;;;;4975433;28;20299;-80
2021/07/21 10:20:08;;;;;;;6.10;5.50;;;;;;;;;;4993149;28;20206;-80
2021/07/21 10:22:35;;;;;;;10.13;5.28;;;;;;;;;;4975562;28;20728;-79
2021/07/21 10:25:01;;;;;;;5.68;5.10;;;;;;;;;;4992693;28;20209;-83
2021/07/21 10:27:28;;;;;;;8.35;4.72;;;;;;;;;;4975740;28;20256;-81
2021/07/21 10:29:57;;;;;;;6.70;5.30;;;;;;;;;;4975977;28;20526;-86
2021/07/21 10:32:24;;;;;;;5.40;4.90;;;;;;;;;;4976457;28;20761;-87
2021/07/21 10:34:51;;;;;;;7.63;5.22;;;;;;;;;;4975695;28;20205;-84
2021/07/21 10:37:19;;;;;;;4.93;4.43;;;;;;;;;;4978806;28;20648;-86
2021/07/21 10:39:50;;;;;;;7.57;5.20;;;;;;;;;;4997219;28;20547;-85
2021/07/21 10:42:19;;;;;;;7.40;5.40;;;;;;;;;;4996977;28;20698;-84
2021/07/21 10:44:55;;;;;;;6.50;5.07;;;;;;;;;;4996864;28;20740;-87
2021/07/21 10:47:23;;;;;;;4.93;4.43;;;;;;;;;;4997559;28;20240;-84
2021/07/21 10:49:52;;;;;;;9.13;4.60;;;;;;;;;;4979382;28;20572;-85
2021/07/21 10:55:21;;;;;;;5.72;4.53;;;;;;;;;;4991726;28;21015;-84
2021/07/21 11:00:33;;;;;;;5.28;4.47;;;;;;;;;;4996302;28;20717;-83
2021/07/21 11:03:16;;;;;;;4.65;4.18;;;;;;;;;;4978654;28;20202;-82
2021/07/21 11:05:44;;;;;;;5.13;4.63;;;;;;;;;;4995590;28;20658;-83
2021/07/21 11:08:17;;;;;;;5.72;4.18;;;;;;;;;;4996102;28;20202;-83
2021/07/21 11:10:45;;;;;;;5.20;4.70;;;;;;;;;;4978136;28;20264;-86
2021/07/21 11:13:13;;;;;;;5.15;4.55;;;;;;;;;;4995845;28;20186;-83
2021/07/21 11:15:40;;;;;;;6.63;4.38;;;;;;;;;;4995412;28;20213;-82
2021/07/21 11:18:26;;;;;;;5.47;4.55;;;;;;;;;;4978045;28;20232;-84
2021/07/21 11:20:56;;;;;;;5.43;4.28;;;;;;;;;;4995695;28;20209;-84
2021/07/21 11:23:43;;;;;;;6.38;4.80;;;;;;;;;;4995509;28;20248;-86
2021/07/21 11:26:29;;;;;;;5.00;4.60;;;;;;;;;;4995441;28;20256;-84
2021/07/21 11:28:56;;;;;;;5.90;4.30;;;;;;;;;;4978058;28;20228;-82
2021/07/21 11:31:38;;;;;;;6.25;4.80;;;;;;;;;;4983658;28;20595;-83
2021/07/21 11:34:11;;;;;;;6.25;4.60;;;;;;;;;;4996127;28;20197;-83
2021/07/21 11:36:48;;;;;;;4.88;4.45;;;;;;;;;;4975911;28;20224;-83
2021/07/21 11:39:40;;;;;;;9.15;4.90;;;;;;;;;;4984398;28;20201;-82
2021/07/21 11:42:07;;;;;;;6.35;4.75;;;;;;;;;;5005539;28;20275;-82
2021/07/21 11:44:34;;;;;;;5.13;4.63;;;;;;;;;;4982709;28;20245;-82
2021/07/21 11:47:03;;;;;;;6.53;4.80;;;;;;;;;;4998659;28;20644;-83
2021/07/21 11:49:31;;;;;;;9.77;4.40;;;;;;;;;;5002801;28;20691;-82
2021/07/21 11:51:58;;;;;;;5.60;4.28;;;;;;;;;;5000589;28;20455;-81
2021/07/21 11:54:27;;;;;;;10.75;4.72;;;;;;;;;;4994815;28;20686;-84
2021/07/21 11:56:55;;;;;;;4.60;4.18;;;;;;;;;;4977135;28;20654;-85
2021/07/21 11:59:32;;;;;;;5.97;4.40;;;;;;;;;;4976716;28;20205;-85
2021/07/21 12:02:06;;;;;;;5.65;4.47;;;;;;;;;;4976721;28;20763;-85
2021/07/21 12:04:33;;;;;;;5.30;4.60;;;;;;;;;;4994480;28;20213;-85
2021/07/21 12:07:00;;;;;;;4.75;4.35;;;;;;;;;;4976614;28;20558;-83
2021/07/21 12:09:27;;;;;;;6.43;4.75;;;;;;;;;;4977043;28;20194;-81
2021/07/21 12:11:56;;;;;;;5.28;4.75;;;;;;;;;;4976778;28;20225;-85
2021/07/21 12:14:24;;;;;;;5.45;4.53;;;;;;;;;;4976927;28;20225;-85
2021/07/21 12:16:51;;;;;;;6.50;4.57;;;;;;;;;;4976467;28;20519;-86
2021/07/21 12:19:24;;;;;;;5.20;4.70;;;;;;;;;;4976063;28;20253;-87
2021/07/21 12:21:59;;;;;;;5.18;4.78;;;;;;;;;;4993915;28;20603;-85
2021/07/21 12:24:31;;;;;;;8.93;4.75;;;;;;;;;;4994308;28;20268;-84
2021/07/21 12:27:00;;;;;;;4.65;4.28;;;;;;;;;;4977489;28;20236;-88
2021/07/21 12:29:27;;;;;;;5.32;4.88;;;;;;;;;;4979105;28;20204;-86
2021/07/21 12:32:01;;;;;;;5.20;4.68;;;;;;;;;;4994915;28;20229;-83
2021/07/21 12:34:28;;;;;;;4.97;4.55;;;;;;;;;;4995040;28;20241;-87
2021/07/21 12:36:55;;;;;;;11.98;4.78;;;;;;;;;;4994102;28;20218;-84
2021/07/21 12:39:24;;;;;;;8.52;4.45;;;;;;;;;;4993745;28;20261;-86
2021/07/21 12:41:51;;;;;;;4.45;4.05;;;;;;;;;;4975499;28;20264;-86
2021/07/21 12:44:22;;;;;;;7.97;4.30;;;;;;;;;;4993714;28;20208;-86
2021/07/21 12:46:49;;;;;;;5.68;4.28;;;;;;;;;;4968121;28;20254;-84
2021/07/21 12:49:16;;;;;;;5.00;4.60;;;;;;;;;;4974381;28;20230;-86
2021/07/21 12:51:43;;;;;;;6.18;3.90;;;;;;;;;;4973834;28;20246;-86
2021/07/21 12:54:11;;;;;;;7.35;4.40;;;;;;;;;;4973475;28;20298;-86
2021/07/21 12:56:38;;;;;;;7.63;4.05;;;;;;;;;;4973967;28;20252;-84
2021/07/21 12:59:06;;;;;;;5.43;3.88;;;;;;;;;;4973532;28;20258;-85
2021/07/21 13:01:34;;;;;;;7.13;4.15;;;;;;;;;;4973578;28;20225;-85
2021/07/21 13:04:01;;;;;;;4.47;4.05;;;;;;;;;;4956598;28;20206;-84
2021/07/21 13:06:27;;;;;;;7.47;4.05;;;;;;;;;;4973100;28;20246;-85
2021/07/21 13:08:54;;;;;;;4.47;4.03;;;;;;;;;;4974009;28;20722;-86
2021/07/21 13:11:22;;;;;;;7.63;4.03;;;;;;;;;;4973496;28;20614;-84
2021/07/21 13:13:53;;;;;;;8.57;4.35;;;;;;;;;;4973737;28;20740;-83
2021/07/21 13:16:21;;;;;;;7.47;4.03;;;;;;;;;;4955686;28;20579;-85
2021/07/21 13:18:50;;;;;;;6.88;3.90;;;;;;;;;;4973188;28;20241;-84
2021/07/21 13:21:20;;;;;;;4.60;4.18;;;;;;;;;;4973042;28;20253;-86
2021/07/21 13:23:48;;;;;;;7.18;4.30;;;;;;;;;;4973351;28;20246;-83
2021/07/21 13:26:14;;;;;;;4.45;4.05;;;;;;;;;;4973389;28;20214;-84
2021/07/21 13:28:45;;;;;;;4.75;3.67;;;;;;;;;;4972453;28;20234;-84
2021/07/21 13:31:13;;;;;;;4.55;3.63;;;;;;;;;;4972553;28;20242;-84
2021/07/21 13:33:40;;;;;;;6.30;4.28;;;;;;;;;;4972396;28;20238;-85
2021/07/21 13:36:09;;;;;;;7.28;4.05;;;;;;;;;;4956065;28;20520;-84
2021/07/21 13:38:37;;;;;;;3.97;3.60;;;;;;;;;;4955468;28;20245;-86
2021/07/21 13:41:05;;;;;;;12.43;4.20;;;;;;;;;;4955675;28;20242;-85
2021/07/21 13:43:32;;;;;;;7.72;4.18;;;;;;;;;;4972974;28;20576;-83
2021/07/21 13:45:59;;;;;;;4.00;3.70;;;;;;;;;;4972169;28;20206;-84
2021/07/21 13:48:26;;;;;;;4.65;4.00;;;;;;;;;;4992158;28;20317;-82
2021/07/21 13:51:11;;;;;;;6.30;3.35;;;;;;;;;;4974885;28;20289;-86
2021/07/21 13:53:37;;;;;;;8.82;3.65;;;;;;;;;;4992306;28;20240;-85
2021/07/21 13:56:04;;;;;;;5.30;3.67;;;;;;;;;;4992034;28;20233;-86
2021/07/21 13:58:31;;;;;;;4.03;3.72;;;;;;;;;;4991790;28;20701;-85
2021/07/21 14:00:58;;;;;;;5.05;3.75;;;;;;;;;;4992055;28;20209;-86
2021/07/21 14:03:24;;;;;;;4.68;3.60;;;;;;;;;;4974508;28;20237;-82
2021/07/21 14:05:51;;;;;;;4.65;3.63;;;;;;;;;;4992543;28;20678;-83
2021/07/21 14:08:19;;;;;;;4.28;3.97;;;;;;;;;;4992093;28;20233;-82
2021/07/21 14:10:46;;;;;;;3.60;3.30;;;;;;;;;;4994235;28;20252;-83
2021/07/21 14:13:12;;;;;;;4.35;3.55;;;;;;;;;;4978146;28;20685;-82
2021/07/21 14:15:39;;;;;;;4.13;3.80;;;;;;;;;;4996335;28;20240;-86
2021/07/21 14:18:06;;;;;;;7.20;4.00;;;;;;;;;;4996564;28;20244;-84
2021/07/21 14:20:33;;;;;;;4.03;3.60;;;;;;;;;;4995825;28;20241;-82
2021/07/21 14:22:59;;;;;;;8.43;3.13;;;;;;;;;;4978544;28;20237;-83
2021/07/21 14:25:27;;;;;;;3.67;3.38;;;;;;;;;;4978406;28;20689;-83
2021/07/21 14:27:54;;;;;;;3.45;3.20;;;;;;;;;;4978482;28;20236;-83
2021/07/21 14:30:21;;;;;;;4.88;3.22;;;;;;;;;;4977970;28;20229;-83
2021/07/21 14:32:47;;;;;;;3.65;2.90;;;;;;;;;;4978041;28;20606;-82
2021/07/21 14:35:15;;;;;;;3.28;3.00;;;;;;;;;;4978102;28;20209;-83
2021/07/21 14:37:41;;;;;;;4.78;3.17;;;;;;;;;;4977931;28;20764;-82
2021/07/21 14:40:09;;;;;;;3.70;3.40;;;;;;;;;;4978138;28;20242;-82
2021/07/21 14:42:37;;;;;;;5.32;2.92;;;;;;;;;;4978425;28;20194;-83
2021/07/21 14:45:05;;;;;;;7.10;3.15;;;;;;;;;;4995773;28;20210;-83
2021/07/21 14:47:32;;;;;;;3.97;3.33;;;;;;;;;;4977869;28;20257;-83
2021/07/21 14:49:59;;;;;;;3.83;3.40;;;;;;;;;;4977414;28;20264;-82
2021/07/21 14:52:25;;;;;;;3.53;3.17;;;;;;;;;;4977717;28;20589;-81
2021/07/21 14:54:52;;;;;;;3.53;3.03;;;;;;;;;;4995310;28;20210;-83